Time;durP1;ratioP1;P1;durP2;ratioP2;P2;SDS_P1;SDS_P2;PMS_P1;PMS_P2;Temp;Humidity;BMP_temperature;BMP_pressure;BME280_temperature;BME280_humidity;BME280_pressure;Samples;Min_cycle;Max_cycle;Signal;HPM_P1;HPM_P2
2022/05/30 00:00:29;;;;;;;8.97;5.00;;;12.80;35.00;;;;;;5014634;28;20173;-73
2022/05/30 00:02:55;;;;;;;7.70;4.70;;;12.80;35.70;;;;;;5014845;28;20170;-73
2022/05/30 00:05:23;;;;;;;10.60;5.07;;;12.50;36.80;;;;;;5014634;28;20248;-73
2022/05/30 00:07:50;;;;;;;8.90;4.57;;;12.30;39.20;;;;;;5014807;28;20471;-73
2022/05/30 00:10:16;;;;;;;10.80;4.70;;;12.10;39.50;;;;;;5014745;28;20408;-72
2022/05/30 00:12:43;;;;;;;12.50;5.35;;;12.10;38.20;;;;;;5014793;28;20408;-73
2022/05/30 00:15:14;;;;;;;7.75;4.65;;;12.00;39.70;;;;;;5014541;28;20208;-73
2022/05/30 00:17:39;;;;;;;8.77;5.18;;;12.00;39.30;;;;;;5014831;28;20177;-74
2022/05/30 00:20:06;;;;;;;16.87;5.10;;;11.90;39.60;;;;;;5014740;28;20181;-73
2022/05/30 00:22:31;;;;;;;11.70;5.05;;;11.80;39.30;;;;;;5014868;28;20177;-73
2022/05/30 00:24:57;;;;;;;6.73;5.00;;;11.50;39.70;;;;;;5014350;28;20208;-73
2022/05/30 00:27:22;;;;;;;10.20;4.97;;;11.60;39.80;;;;;;5014450;28;20179;-73
2022/05/30 00:29:48;;;;;;;10.60;4.80;;;11.70;39.90;;;;;;5014596;28;20574;-73
2022/05/30 00:32:14;;;;;;;8.57;5.40;;;11.70;38.80;;;;;;5014419;28;20177;-73
2022/05/30 00:34:41;;;;;;;11.00;5.50;;;11.80;39.80;;;;;;5014123;28;20287;-73
2022/05/30 00:37:06;;;;;;;15.63;5.55;;;11.80;40.00;;;;;;5014027;28;20419;-73
2022/05/30 00:39:32;;;;;;;7.50;5.00;;;11.90;40.30;;;;;;5014503;28;20169;-73
2022/05/30 00:42:19;;;;;;;8.20;4.70;;;11.80;40.90;;;;;;5014361;28;20239;-73
2022/05/30 00:44:46;;;;;;;8.45;4.85;;;11.80;41.30;;;;;;5014154;28;20431;-72
2022/05/30 00:47:12;;;;;;;10.95;5.70;;;11.90;39.70;;;;;;5014079;28;20187;-73
2022/05/30 00:49:40;;;;;;;10.23;6.17;;;11.70;40.00;;;;;;5014209;28;20660;-73
2022/05/30 00:52:09;;;;;;;9.20;5.15;;;11.60;40.80;;;;;;5014018;28;20414;-73
2022/05/30 00:54:48;;;;;;;10.45;5.60;;;11.70;40.90;;;;;;5013763;28;20214;-73
2022/05/30 00:57:20;;;;;;;10.50;5.80;;;11.60;40.10;;;;;;5014225;28;20193;-73
2022/05/30 01:00:07;;;;;;;10.48;5.60;;;11.60;41.50;;;;;;5013943;28;20581;-73
2022/05/30 01:02:34;;;;;;;9.50;5.40;;;11.40;41.90;;;;;;5006655;28;20209;-73
2022/05/30 01:07:46;;;;;;;12.18;4.90;;;11.50;41.10;;;;;;5014165;28;20196;-73
2022/05/30 01:10:15;;;;;;;8.20;5.40;;;11.30;41.60;;;;;;5013101;28;20177;-73
2022/05/30 01:12:52;;;;;;;9.25;5.18;;;11.20;43.30;;;;;;5013727;28;20177;-73
2022/05/30 01:15:21;;;;;;;7.80;4.50;;;11.50;41.20;;;;;;5013586;28;20713;-73
2022/05/30 01:18:17;;;;;;;6.22;4.72;;;11.90;38.50;;;;;;5013836;28;20184;-73
2022/05/30 01:21:06;;;;;;;9.57;5.10;;;12.00;38.50;;;;;;5013266;28;20181;-70
2022/05/30 01:24:02;;;;;;;9.90;4.75;;;11.90;37.80;;;;;;5013516;28;20168;-73
2022/05/30 01:26:52;;;;;;;7.55;4.82;;;11.80;38.90;;;;;;5013612;28;20165;-73
2022/05/30 01:29:29;;;;;;;7.70;4.95;;;11.60;40.10;;;;;;5013622;28;20172;-74
2022/05/30 01:31:56;;;;;;;8.43;5.00;;;11.50;39.90;;;;;;5013286;28;20251;-73
2022/05/30 01:34:24;;;;;;;8.20;4.97;;;11.70;40.10;;;;;;5013148;28;20259;-72
2022/05/30 01:36:51;;;;;;;9.48;5.70;;;11.50;41.10;;;;;;5012865;28;20181;-72
2022/05/30 01:39:16;;;;;;;13.85;5.28;;;11.50;41.10;;;;;;5013216;28;20184;-73
2022/05/30 01:41:42;;;;;;;9.77;5.10;;;11.30;40.30;;;;;;5013099;28;20180;-73
2022/05/30 01:44:08;;;;;;;10.03;6.13;;;11.20;39.70;;;;;;5012844;28;20790;-72
2022/05/30 01:46:34;;;;;;;8.33;5.60;;;11.00;40.30;;;;;;5013256;28;20584;-73
2022/05/30 01:48:59;;;;;;;11.37;6.10;;;10.90;41.70;;;;;;5013214;28;20264;-73
2022/05/30 01:51:25;;;;;;;9.63;6.10;;;10.90;41.00;;;;;;5012919;28;20462;-73
2022/05/30 01:53:51;;;;;;;11.97;6.40;;;10.40;41.70;;;;;;5012486;28;20211;-72
2022/05/30 01:56:18;;;;;;;12.82;6.07;;;10.30;41.70;;;;;;5013216;28;20416;-73
2022/05/30 01:58:43;;;;;;;11.30;6.10;;;10.40;42.10;;;;;;5013025;28;20203;-75
2022/05/30 02:01:21;;;;;;;9.10;5.87;;;10.90;41.40;;;;;;5012846;28;20174;-73
2022/05/30 02:03:49;;;;;;;8.43;5.82;;;10.80;41.20;;;;;;5012749;28;20210;-73
2022/05/30 02:06:16;;;;;;;9.02;5.85;;;10.70;40.70;;;;;;5012345;28;20179;-73
2022/05/30 02:08:42;;;;;;;9.52;5.97;;;10.60;42.00;;;;;;5012759;28;20182;-73
2022/05/30 02:11:10;;;;;;;10.65;5.55;;;10.70;41.90;;;;;;5011279;28;20558;-73
2022/05/30 02:13:37;;;;;;;10.07;5.20;;;10.70;41.60;;;;;;5011255;28;20234;-73
2022/05/30 02:18:52;;;;;;;8.15;5.38;;;10.50;41.30;;;;;;5012918;28;20193;-74
2022/05/30 02:21:18;;;;;;;10.37;5.60;;;10.40;42.90;;;;;;5011674;28;20648;-74
2022/05/30 02:23:45;;;;;;;11.15;5.80;;;10.40;41.00;;;;;;5012354;28;20171;-74
2022/05/30 02:26:11;;;;;;;12.30;5.43;;;10.40;41.70;;;;;;5012479;28;20177;-74
2022/05/30 02:28:37;;;;;;;8.80;5.27;;;10.40;41.30;;;;;;5012589;28;20192;-73
2022/05/30 02:31:03;;;;;;;9.47;5.60;;;10.40;43.00;;;;;;5012314;28;20173;-73
2022/05/30 02:38:57;;;;;;;7.82;5.60;;;10.30;42.20;;;;;;5028386;28;20223;-75
2022/05/30 02:41:23;;;;;;;11.80;6.03;;;10.20;43.10;;;;;;5013826;28;20177;-75
2022/05/30 02:43:50;;;;;;;9.10;5.97;;;10.10;42.50;;;;;;5031531;28;20182;-75
2022/05/30 02:46:17;;;;;;;11.75;5.65;;;10.10;43.50;;;;;;5031305;28;20210;-75
2022/05/30 02:48:43;;;;;;;9.93;5.82;;;10.20;43.00;;;;;;5031811;28;20192;-76
2022/05/30 02:51:09;;;;;;;10.23;6.00;;;10.30;43.10;;;;;;5033080;28;20659;-76
2022/05/30 02:53:34;;;;;;;9.18;5.80;;;10.50;42.40;;;;;;5033507;28;20408;-75
2022/05/30 02:56:01;;;;;;;9.07;5.20;;;10.80;40.20;;;;;;5031280;28;20204;-75
2022/05/30 02:58:27;;;;;;;15.38;5.70;;;10.60;40.30;;;;;;5031451;28;20180;-75
2022/05/30 03:00:52;;;;;;;9.57;6.10;;;10.50;41.60;;;;;;5031563;28;20176;-75
2022/05/30 03:03:18;;;;;;;10.97;5.43;;;10.40;41.30;;;;;;5031405;28;20168;-76
2022/05/30 03:05:44;;;;;;;19.13;10.87;;;10.40;41.90;;;;;;5013132;28;20219;-74
2022/05/30 03:08:11;;;;;;;8.90;5.90;;;10.40;41.90;;;;;;5031402;28;20188;-75
2022/05/30 03:10:37;;;;;;;10.02;6.13;;;10.40;41.70;;;;;;5031322;28;20660;-75
2022/05/30 03:13:04;;;;;;;11.50;6.32;;;10.30;41.90;;;;;;5030818;28;20660;-75
2022/05/30 03:15:30;;;;;;;9.73;6.10;;;10.20;41.20;;;;;;5031407;28;20250;-75
2022/05/30 03:17:56;;;;;;;12.83;5.87;;;6.90;40.10;;;;;;5031264;28;20181;-75
2022/05/30 03:20:22;;;;;;;8.90;6.03;;;10.20;43.30;;;;;;5031388;28;20590;-75
2022/05/30 03:22:48;;;;;;;10.90;5.97;;;10.20;42.90;;;;;;5030989;28;20172;-75
2022/05/30 03:25:15;;;;;;;8.95;6.38;;;10.20;41.90;;;;;;5028463;28;20720;-76
2022/05/30 03:27:41;;;;;;;10.15;6.25;;;10.20;42.30;;;;;;5030835;28;20195;-76
2022/05/30 03:30:08;;;;;;;18.10;6.57;;;10.10;43.50;;;;;;5031442;28;20176;-75
2022/05/30 03:32:33;;;;;;;10.38;6.55;;;10.00;41.90;;;;;;5030956;28;20317;-75
2022/05/30 03:34:59;;;;;;;8.90;6.33;;;10.10;42.30;;;;;;5034933;28;20287;-75
2022/05/30 03:37:26;;;;;;;12.60;6.20;;;10.10;43.60;;;;;;5034499;28;20184;-75
2022/05/30 03:39:52;;;;;;;10.63;6.68;;;10.20;42.20;;;;;;5034974;28;20462;-76
2022/05/30 03:42:17;;;;;;;11.50;6.57;;;10.10;42.50;;;;;;5034479;28;20212;-75
2022/05/30 03:44:44;;;;;;;12.77;6.60;;;10.10;42.30;;;;;;5034608;28;20419;-76
2022/05/30 03:47:10;;;;;;;11.43;7.25;;;10.00;41.90;;;;;;5016796;28;20697;-76
2022/05/30 03:49:37;;;;;;;12.60;6.78;;;10.10;42.90;;;;;;5034955;28;20535;-75
2022/05/30 03:52:03;;;;;;;11.60;6.70;;;9.90;43.90;;;;;;5016918;28;20211;-76
2022/05/30 03:54:29;;;;;;;12.77;6.30;;;9.90;44.90;;;;;;5034737;28;20204;-76
2022/05/30 03:56:54;;;;;;;15.10;7.73;;;9.90;44.50;;;;;;5034891;28;20196;-76
2022/05/30 03:59:20;;;;;;;11.80;7.33;;;9.90;44.00;;;;;;5034673;28;20257;-76
2022/05/30 04:01:45;;;;;;;11.07;7.07;;;10.00;42.90;;;;;;5034356;28;20177;-76
2022/05/30 04:04:14;;;;;;;13.33;6.70;;;10.00;43.50;;;;;;5034655;28;20176;-76
2022/05/30 04:06:40;;;;;;;14.65;7.95;;;10.00;43.10;;;;;;5034007;28;20200;-75
2022/05/30 04:09:07;;;;;;;18.02;9.85;;;10.10;42.20;;;;;;5034694;28;20184;-76
2022/05/30 04:11:33;;;;;;;15.45;8.43;;;10.30;42.80;;;;;;5034100;28;20186;-76
2022/05/30 04:13:59;;;;;;;11.03;7.97;;;10.30;42.10;;;;;;5034097;28;20281;-75
2022/05/30 04:16:25;;;;;;;11.25;7.22;;;10.30;42.10;;;;;;5034195;28;20456;-75
2022/05/30 04:18:51;;;;;;;15.10;7.70;;;10.20;41.90;;;;;;5034191;28;20594;-75
2022/05/30 04:21:16;;;;;;;11.50;7.33;;;10.20;41.20;;;;;;5033981;28;20179;-76
2022/05/30 04:23:43;;;;;;;18.10;7.00;;;10.30;42.80;;;;;;5033918;28;20757;-75
2022/05/30 04:26:13;;;;;;;16.45;7.20;;;10.50;42.00;;;;;;5033630;28;20516;-75
2022/05/30 04:28:39;;;;;;;11.10;6.30;;;10.50;41.90;;;;;;5033995;28;20175;-76
2022/05/30 04:31:10;;;;;;;30.07;6.67;;;10.60;42.30;;;;;;5033751;28;20225;-75
2022/05/30 04:33:37;;;;;;;10.75;6.45;;;10.50;41.90;;;;;;5033650;28;20633;-75
2022/05/30 04:36:06;;;;;;;9.77;7.05;;;10.40;41.00;;;;;;5033388;28;20278;-75
2022/05/30 04:38:32;;;;;;;14.60;6.60;;;10.40;41.40;;;;;;5033364;28;20180;-75
2022/05/30 04:40:58;;;;;;;13.23;8.30;;;10.40;41.70;;;;;;5033750;28;20171;-76
2022/05/30 04:43:23;;;;;;;12.60;7.33;;;10.30;40.70;;;;;;5033686;28;20913;-76
2022/05/30 04:46:11;;;;;;;11.23;7.43;;;10.20;40.70;;;;;;5033072;28;20193;-75
2022/05/30 04:48:37;;;;;;;14.70;7.38;;;10.00;42.90;;;;;;5033369;28;20979;-75
2022/05/30 04:51:03;;;;;;;12.53;7.80;;;10.00;42.70;;;;;;5033302;28;20240;-75
2022/05/30 04:53:28;;;;;;;21.67;10.90;;;10.30;43.40;;;;;;5033516;28;20420;-75
2022/05/30 04:55:54;;;;;;;16.07;9.57;;;10.70;42.60;;;;;;5033251;28;20554;-75
2022/05/30 04:58:20;;;;;;;18.90;8.20;;;11.00;40.70;;;;;;5033391;28;20248;-76
2022/05/30 05:00:46;;;;;;;13.13;8.43;;;11.00;40.20;;;;;;5033492;28;20550;-75
2022/05/30 05:03:11;;;;;;;17.93;7.73;;;10.70;40.90;;;;;;5033347;28;20242;-75
2022/05/30 05:05:37;;;;;;;13.30;8.37;;;10.90;40.40;;;;;;5032654;28;20435;-76
2022/05/30 05:08:16;;;;;;;11.57;7.90;;;10.70;41.30;;;;;;5033332;28;20325;-75
2022/05/30 05:11:13;;;;;;;12.60;6.70;;;11.00;41.40;;;;;;5033066;28;20186;-75
2022/05/30 05:13:40;;;;;;;15.68;6.95;;;11.20;40.90;;;;;;4971648;28;20680;-75
2022/05/30 05:16:06;;;;;;;19.70;6.93;;;10.30;42.50;;;;;;4971736;28;20205;-75
2022/05/30 05:18:32;;;;;;;12.40;7.35;;;10.50;42.50;;;;;;4971668;28;20185;-75
2022/05/30 05:20:58;;;;;;;11.50;7.30;;;10.80;42.60;;;;;;4971680;28;20484;-76
2022/05/30 05:23:24;;;;;;;12.00;7.32;;;10.70;41.20;;;;;;4988425;28;20185;-75
2022/05/30 05:25:49;;;;;;;17.13;8.80;;;10.40;41.80;;;;;;4971705;28;20234;-74
2022/05/30 05:28:15;;;;;;;14.80;8.40;;;10.80;43.60;;;;;;4971888;28;20669;-75
2022/05/30 05:30:42;;;;;;;14.43;8.60;;;11.20;41.60;;;;;;4971336;28;20205;-75
2022/05/30 05:33:09;;;;;;;15.15;8.80;;;10.30;42.30;;;;;;4962139;28;20579;-76
2022/05/30 05:35:35;;;;;;;15.43;8.73;;;10.80;42.00;;;;;;4951660;29;20278;-75
2022/05/30 05:38:00;;;;;;;15.73;8.85;;;10.70;43.00;;;;;;4952310;29;20191;-75
2022/05/30 05:40:28;;;;;;;12.07;7.53;;;11.00;40.30;;;;;;4952342;29;20666;-75
2022/05/30 05:42:54;;;;;;;11.30;6.78;;;10.70;41.80;;;;;;4951874;29;20167;-75
2022/05/30 05:45:19;;;;;;;11.67;6.70;;;11.00;40.00;;;;;;4952253;29;20210;-76
2022/05/30 05:47:45;;;;;;;11.10;6.47;;;10.60;42.60;;;;;;4951946;29;20458;-76
2022/05/30 05:50:11;;;;;;;11.40;6.83;;;10.60;40.50;;;;;;4978528;28;20182;-75
2022/05/30 05:52:37;;;;;;;11.43;6.80;;;10.80;42.60;;;;;;5012447;28;20188;-75
2022/05/30 05:55:03;;;;;;;11.18;6.93;;;10.80;39.40;;;;;;5012398;28;20268;-76
2022/05/30 05:57:28;;;;;;;10.83;6.73;;;10.70;39.80;;;;;;5012692;28;20185;-75
2022/05/30 05:59:54;;;;;;;13.13;7.03;;;10.70;40.50;;;;;;5012135;28;20173;-75
2022/05/30 06:02:22;;;;;;;11.70;6.70;;;11.20;41.20;;;;;;5012453;28;20169;-75
2022/05/30 06:04:48;;;;;;;13.15;7.55;;;11.70;39.50;;;;;;5012438;28;20174;-75
2022/05/30 06:07:14;;;;;;;15.73;7.05;;;12.00;38.70;;;;;;5012361;28;20196;-76
2022/05/30 06:09:39;;;;;;;9.80;5.93;;;12.10;38.60;;;;;;5012554;28;20256;-75
2022/05/30 06:12:07;;;;;;;8.50;5.97;;;12.00;37.20;;;;;;5012220;28;20443;-76
2022/05/30 06:14:33;;;;;;;11.50;6.40;;;12.30;37.30;;;;;;5011790;28;20212;-73
2022/05/30 06:16:59;;;;;;;13.87;6.57;;;12.90;35.10;;;;;;5012256;28;20432;-73
2022/05/30 06:19:24;;;;;;;9.83;6.10;;;13.00;35.10;;;;;;5012314;28;20169;-73
2022/05/30 06:21:50;;;;;;;12.47;6.07;;;13.30;34.00;;;;;;5011722;28;20477;-73
2022/05/30 06:24:16;;;;;;;10.80;6.03;;;13.40;33.30;;;;;;5012078;28;20173;-73
2022/05/30 06:26:45;;;;;;;11.80;6.33;;;12.80;35.00;;;;;;5012046;28;20204;-73
2022/05/30 06:29:12;;;;;;;15.47;7.10;;;12.70;34.90;;;;;;5011978;28;20788;-74
2022/05/30 06:31:38;;;;;;;12.70;6.80;;;13.00;37.10;;;;;;5011889;28;20778;-74
2022/05/30 06:34:03;;;;;;;10.50;6.07;;;13.00;34.10;;;;;;5029636;28;20455;-76
2022/05/30 06:36:29;;;;;;;9.10;6.20;;;12.40;36.80;;;;;;5031215;28;20219;-75
2022/05/30 06:38:56;;;;;;;10.30;7.07;;;12.10;37.40;;;;;;5031663;28;20220;-72
2022/05/30 06:41:30;;;;;;;14.27;7.07;;;12.20;38.30;;;;;;5031235;28;20651;-74
2022/05/30 06:44:10;;;;;;;12.77;7.97;;;12.90;38.90;;;;;;5031752;28;20396;-73
2022/05/30 06:46:37;;;;;;;16.90;7.80;;;13.20;35.30;;;;;;5031401;28;20426;-74
2022/05/30 06:49:04;;;;;;;12.67;7.20;;;13.60;35.10;;;;;;5031535;28;20930;-75
2022/05/30 06:51:34;;;;;;;11.43;6.87;;;13.70;33.90;;;;;;5031188;28;20418;-75
2022/05/30 06:53:59;;;;;;;14.30;7.50;;;12.90;35.40;;;;;;5030920;28;20458;-73
2022/05/30 06:56:30;;;;;;;11.77;8.10;;;13.10;38.30;;;;;;5031336;28;20435;-74
2022/05/30 06:58:56;;;;;;;11.10;6.60;;;12.90;36.10;;;;;;5031276;28;20303;-74
2022/05/30 07:01:28;;;;;;;14.47;6.73;;;13.20;34.90;;;;;;5031096;28;20494;-75
2022/05/30 07:03:54;;;;;;;13.97;7.63;;;13.70;34.30;;;;;;5013183;28;20441;-75
2022/05/30 07:06:32;;;;;;;14.53;7.00;;;13.10;35.20;;;;;;5031495;28;20526;-74
2022/05/30 07:08:58;;;;;;;12.47;6.67;;;13.50;34.80;;;;;;5030892;28;20410;-73
2022/05/30 07:11:24;;;;;;;11.23;7.03;;;13.80;34.30;;;;;;5031181;28;20407;-73
2022/05/30 07:13:51;;;;;;;11.73;6.60;;;14.00;35.80;;;;;;5030955;28;20415;-73
2022/05/30 07:16:17;;;;;;;10.90;6.40;;;13.30;34.20;;;;;;5030883;28;20485;-74
2022/05/30 07:18:44;;;;;;;13.87;6.73;;;13.00;35.80;;;;;;5031153;28;20411;-74
2022/05/30 07:21:12;;;;;;;11.77;6.90;;;13.20;35.10;;;;;;5030911;28;20419;-75
2022/05/30 07:23:38;;;;;;;13.30;6.67;;;13.80;33.80;;;;;;5031152;28;20421;-76
2022/05/30 07:26:06;;;;;;;12.00;6.07;;;14.30;33.70;;;;;;5030956;28;20432;-75
2022/05/30 07:28:32;;;;;;;16.53;6.40;;;14.40;32.50;;;;;;5030986;28;20183;-75
2022/05/30 07:31:07;;;;;;;17.50;6.53;;;14.50;33.60;;;;;;5030805;28;20415;-75
2022/05/30 07:33:34;;;;;;;9.60;5.97;;;14.00;31.10;;;;;;5033312;28;20426;-75
2022/05/30 07:36:02;;;;;;;14.17;6.60;;;14.30;32.20;;;;;;5037805;28;20511;-76
2022/05/30 07:38:27;;;;;;;10.67;6.43;;;13.90;32.30;;;;;;5038976;28;20411;-76
2022/05/30 07:40:53;;;;;;;10.03;6.17;;;13.70;32.80;;;;;;5034293;28;20419;-76
2022/05/30 07:43:19;;;;;;;11.17;5.87;;;13.50;34.60;;;;;;5031705;28;20262;-76
2022/05/30 07:45:46;;;;;;;11.40;5.77;;;13.10;35.20;;;;;;5031272;28;20443;-74
2022/05/30 07:48:12;;;;;;;11.03;6.40;;;13.70;35.00;;;;;;5031484;28;20170;-75
2022/05/30 07:50:37;;;;;;;10.43;6.10;;;14.30;33.10;;;;;;5030995;28;20954;-75
2022/05/30 07:53:05;;;;;;;7.93;5.50;;;15.10;31.20;;;;;;5031036;28;20180;-75
2022/05/30 07:55:31;;;;;;;7.80;5.17;;;15.10;30.40;;;;;;5031106;28;20212;-75
2022/05/30 07:58:04;;;;;;;11.50;5.20;;;15.20;31.30;;;;;;5013387;28;20876;-76
2022/05/30 08:00:33;;;;;;;10.10;5.03;;;15.60;30.30;;;;;;5030768;28;20398;-76
2022/05/30 08:02:59;;;;;;;9.00;4.70;;;16.00;29.00;;;;;;5030714;28;20403;-76
2022/05/30 08:05:26;;;;;;;7.13;4.93;;;15.90;29.40;;;;;;5030328;28;20442;-74
2022/05/30 08:07:52;;;;;;;7.70;4.97;;;15.70;29.50;;;;;;5031636;28;20906;-75
2022/05/30 08:10:20;;;;;;;6.33;4.60;;;16.30;30.00;;;;;;5030778;28;20490;-74
2022/05/30 08:12:47;;;;;;;7.57;4.47;;;16.50;29.10;;;;;;5012681;28;20769;-76
2022/05/30 08:15:14;;;;;;;8.43;4.50;;;17.00;27.50;;;;;;5030315;28;20477;-76
2022/05/30 08:17:40;;;;;;;9.07;4.70;;;17.00;27.80;;;;;;5030698;28;20412;-75
2022/05/30 08:20:10;;;;;;;8.43;4.47;;;15.80;27.50;;;;;;5031784;28;20411;-75
2022/05/30 08:22:36;;;;;;;7.83;4.20;;;16.00;29.40;;;;;;5033923;28;20400;-75
2022/05/30 08:25:06;;;;;;;11.43;4.50;;;16.10;28.30;;;;;;5033660;28;20418;-76
2022/05/30 08:27:31;;;;;;;9.80;4.20;;;16.60;28.20;;;;;;5033957;28;20415;-76
2022/05/30 08:29:57;;;;;;;8.50;4.50;;;16.20;26.20;;;;;;5033843;28;21024;-75
2022/05/30 08:32:23;;;;;;;14.73;4.00;;;15.60;28.60;;;;;;5033950;28;20188;-76
2022/05/30 08:34:49;;;;;;;9.60;3.90;;;16.10;27.90;;;;;;5033849;28;21031;-75
2022/05/30 08:37:15;;;;;;;10.17;4.50;;;15.50;29.00;;;;;;5033218;28;20490;-75
2022/05/30 08:42:29;;;;;;;8.30;3.70;;;15.60;28.00;;;;;;5033801;28;20180;-75
2022/05/30 08:44:55;;;;;;;8.03;4.07;;;15.50;25.80;;;;;;5033480;28;20485;-75
2022/05/30 08:47:43;;;;;;;5.40;3.53;;;15.60;27.70;;;;;;5033723;28;20439;-75
2022/05/30 08:50:22;;;;;;;10.93;3.60;;;16.50;27.60;;;;;;5033654;28;20415;-75
2022/05/30 08:53:02;;;;;;;6.80;3.63;;;17.10;26.10;;;;;;5033047;28;20498;-76
2022/05/30 08:55:40;;;;;;;10.30;3.40;;;17.70;23.60;;;;;;5033242;28;20465;-75
2022/05/30 08:58:24;;;;;;;11.63;2.90;;;17.80;22.70;;;;;;5033568;28;20441;-75
2022/05/30 09:00:56;;;;;;;6.30;3.10;;;17.20;24.00;;;;;;5033364;28;20400;-76
2022/05/30 09:03:33;;;;;;;4.53;2.90;;;17.70;21.20;;;;;;5033531;28;20398;-76
2022/05/30 09:06:08;;;;;;;3.90;2.63;;;16.40;21.80;;;;;;5032660;28;20439;-76
2022/05/30 09:08:43;;;;;;;4.30;2.80;;;16.60;19.80;;;;;;5033384;28;20412;-75
2022/05/30 09:11:34;;;;;;;5.77;3.63;;;16.80;20.30;;;;;;5033251;28;20772;-75
2022/05/30 09:14:09;;;;;;;5.30;3.00;;;17.50;21.90;;;;;;5032627;28;20638;-76
2022/05/30 09:16:38;;;;;;;5.53;2.80;;;18.10;21.30;;;;;;5033038;28;20998;-76
2022/05/30 09:19:07;;;;;;;4.20;2.70;;;18.60;19.90;;;;;;5033293;28;20436;-75
2022/05/30 09:21:34;;;;;;;4.10;2.30;;;18.60;16.80;;;;;;5032814;28;20478;-76
2022/05/30 09:24:02;;;;;;;3.90;2.67;;;17.90;15.50;;;;;;5032649;28;20415;-75
2022/05/30 09:26:36;;;;;;;8.23;3.10;;;17.40;16.50;;;;;;5032573;28;20434;-75
2022/05/30 09:29:06;;;;;;;4.97;2.43;;;17.70;17.60;;;;;;5033062;28;21011;-75
2022/05/30 09:31:56;;;;;;;4.83;2.70;;;18.50;15.50;;;;;;5032181;28;20417;-75
2022/05/30 09:34:40;;;;;;;4.97;2.63;;;18.80;13.80;;;;;;5012840;28;20469;-75
2022/05/30 09:37:06;;;;;;;4.57;3.00;;;19.10;16.20;;;;;;5012521;28;20455;-75
2022/05/30 09:39:45;;;;;;;6.87;2.80;;;19.00;17.00;;;;;;4994757;28;20513;-75
2022/05/30 09:42:48;;;;;;;4.57;2.93;;;18.80;17.70;;;;;;5012599;28;20508;-76
2022/05/30 09:45:29;;;;;;;4.00;2.70;;;18.60;17.00;;;;;;5000068;28;20527;-75
2022/05/30 09:48:00;;;;;;;4.63;2.90;;;18.90;18.50;;;;;;4995087;28;20419;-76
2022/05/30 09:50:26;;;;;;;5.37;2.60;;;19.30;17.50;;;;;;5012750;28;20423;-75
2022/05/30 09:52:51;;;;;;;7.63;2.70;;;19.50;17.30;;;;;;5012222;28;20423;-76
2022/05/30 09:55:24;;;;;;;4.77;2.77;;;19.10;16.30;;;;;;4994684;28;20480;-75
2022/05/30 09:57:51;;;;;;;8.10;2.90;;;19.20;16.00;;;;;;5012469;28;20170;-76
2022/05/30 10:00:39;;;;;;;4.60;3.13;;;19.00;17.50;;;;;;5012537;28;20531;-75
2022/05/30 10:03:25;;;;;;;4.60;2.70;;;19.40;18.90;;;;;;5011608;28;20790;-73
2022/05/30 10:05:51;;;;;;;5.00;2.80;;;19.60;18.90;;;;;;5011963;28;20786;-77
2022/05/30 10:08:26;;;;;;;9.40;2.73;;;19.30;18.60;;;;;;5012168;28;20425;-76
2022/05/30 10:10:54;;;;;;;4.70;2.90;;;19.70;16.10;;;;;;4994588;28;20260;-76
2022/05/30 10:13:37;;;;;;;6.27;2.77;;;20.10;18.50;;;;;;5012308;28;20478;-76
2022/05/30 10:16:06;;;;;;;6.47;3.00;;;20.40;19.30;;;;;;5012076;28;20987;-75
2022/05/30 10:18:40;;;;;;;4.70;2.70;;;20.80;17.10;;;;;;5012289;28;20408;-76
2022/05/30 10:21:33;;;;;;;3.80;2.80;;;20.90;16.10;;;;;;5012105;28;20781;-76
2022/05/30 10:30:20;;;;;;;4.27;2.63;;;20.00;17.40;;;;;;5012116;28;20454;-76
2022/05/30 10:33:23;;;;;;;5.50;3.30;;;18.60;16.50;;;;;;4987750;28;20437;-76
2022/05/30 10:36:11;;;;;;;6.23;3.40;;;17.80;18.20;;;;;;5030787;28;20475;-76
2022/05/30 10:39:01;;;;;;;6.87;3.03;;;18.30;17.50;;;;;;5031597;28;20407;-76
2022/05/30 10:42:02;;;;;;;4.70;3.00;;;18.00;17.80;;;;;;5031520;28;20406;-76
2022/05/30 10:44:36;;;;;;;4.60;2.87;;;17.80;17.60;;;;;;5031082;28;20844;-75
2022/05/30 10:47:20;;;;;;;4.63;2.90;;;18.10;17.80;;;;;;5031596;28;20917;-76
2022/05/30 10:49:58;;;;;;;5.53;3.07;;;19.30;17.10;;;;;;5031492;28;20415;-76
2022/05/30 10:52:32;;;;;;;6.07;2.80;;;18.50;17.80;;;;;;5031069;28;20892;-76
2022/05/30 10:55:03;;;;;;;6.33;2.70;;;18.90;17.70;;;;;;5031449;28;20535;-76
2022/05/30 10:57:40;;;;;;;6.13;2.90;;;19.70;18.90;;;;;;5031410;28;20419;-76
2022/05/30 11:00:13;;;;;;;4.53;2.77;;;19.90;15.20;;;;;;5031533;28;20972;-75
2022/05/30 11:03:13;;;;;;;5.67;2.87;;;19.50;18.30;;;;;;5013463;28;20404;-75
2022/05/30 11:05:52;;;;;;;6.60;2.97;;;19.40;15.20;;;;;;5030633;28;20463;-75
2022/05/30 11:08:37;;;;;;;8.33;3.13;;;18.60;15.20;;;;;;5031144;28;20403;-75
2022/05/30 11:11:27;;;;;;;6.60;3.33;;;18.60;16.70;;;;;;5031298;28;20430;-75
2022/05/30 11:14:18;;;;;;;10.63;2.97;;;18.60;16.10;;;;;;5031009;28;20480;-75
2022/05/30 11:17:01;;;;;;;6.83;3.10;;;19.10;16.60;;;;;;5002787;28;20784;-75
2022/05/30 11:19:46;;;;;;;4.17;3.17;;;20.00;17.00;;;;;;5030796;28;20402;-74
2022/05/30 11:22:26;;;;;;;7.03;2.93;;;20.20;13.30;;;;;;5031031;28;20434;-76
2022/05/30 11:24:52;;;;;;;9.03;3.20;;;20.30;13.60;;;;;;5030811;28;20472;-76
2022/05/30 11:27:24;;;;;;;8.77;2.83;;;19.80;14.80;;;;;;5031038;28;20723;-76
2022/05/30 11:29:57;;;;;;;5.27;3.67;;;21.00;13.80;;;;;;5013551;28;20926;-76
2022/05/30 11:32:41;;;;;;;5.63;2.77;;;21.10;13.10;;;;;;5031857;28;20772;-76
2022/05/30 11:35:16;;;;;;;4.80;3.10;;;21.00;13.20;;;;;;5012900;28;20469;-76
2022/05/30 11:37:51;;;;;;;5.43;2.50;;;24.40;17.10;;;;;;5030934;28;20815;-76
2022/05/30 11:40:29;;;;;;;5.30;2.60;;;21.00;13.40;;;;;;5030941;28;20894;-76
2022/05/30 11:43:32;;;;;;;5.17;2.47;;;21.40;12.00;;;;;;5030839;28;20875;-76
2022/05/30 11:46:03;;;;;;;10.90;2.53;;;23.50;12.30;;;;;;5030771;28;20434;-76
2022/05/30 11:48:28;;;;;;;5.37;2.77;;;24.60;10.90;;;;;;5031150;28;20419;-77
2022/05/30 11:51:06;;;;;;;6.20;2.87;;;23.10;9.80;;;;;;5030574;28;20523;-76
2022/05/30 11:53:59;;;;;;;4.53;2.33;;;23.80;10.10;;;;;;5031311;28;20187;-77
2022/05/30 11:56:56;;;;;;;3.77;2.40;;;25.90;8.40;;;;;;5035185;28;20435;-77
2022/05/30 11:59:40;;;;;;;5.03;2.30;;;26.30;8.00;;;;;;5016051;28;20410;-77
2022/05/30 12:02:12;;;;;;;4.90;2.13;;;27.40;9.20;;;;;;5032882;28;20420;-77
2022/05/30 12:04:50;;;;;;;7.47;2.40;;;27.80;7.40;;;;;;5016577;28;20399;-77
2022/05/30 12:07:37;;;;;;;5.63;2.33;;;27.10;7.40;;;;;;5034215;28;20457;-76
2022/05/30 12:10:09;;;;;;;4.00;2.17;;;25.30;7.20;;;;;;5034569;28;20406;-77
2022/05/30 12:12:57;;;;;;;3.43;2.10;;;25.20;9.70;;;;;;5034192;28;20479;-76
2022/05/30 12:15:44;;;;;;;3.80;2.10;;;24.00;8.10;;;;;;5034007;28;20466;-76
2022/05/30 12:24:18;;;;;;;4.33;2.57;;;21.60;10.70;;;;;;5034516;28;20556;-76
2022/05/30 12:26:56;;;;;;;6.37;2.70;;;21.70;11.60;;;;;;5033874;28;20476;-75
2022/05/30 12:29:49;;;;;;;4.77;2.70;;;21.80;10.30;;;;;;5034057;28;20486;-74
2022/05/30 12:32:21;;;;;;;4.30;2.50;;;22.40;12.90;;;;;;5013967;28;20419;-76
2022/05/30 12:35:26;;;;;;;7.40;2.60;;;24.30;10.70;;;;;;5033971;28;20454;-77
2022/05/30 12:37:58;;;;;;;4.10;2.60;;;24.20;9.40;;;;;;5024359;28;20463;-76
2022/05/30 12:40:26;;;;;;;3.73;2.50;;;22.20;8.20;;;;;;5033649;28;20454;-76
2022/05/30 12:43:07;;;;;;;8.43;2.83;;;20.70;10.70;;;;;;5033840;28;20757;-76
2022/05/30 12:45:46;;;;;;;5.30;2.80;;;21.10;10.80;;;;;;5033724;28;20427;-75
2022/05/30 12:48:28;;;;;;;4.93;2.70;;;21.10;11.40;;;;;;5033272;28;20412;-75
2022/05/30 12:50:53;;;;;;;3.90;2.93;;;21.80;10.90;;;;;;5033380;28;20929;-76
2022/05/30 12:53:21;;;;;;;5.90;2.70;;;23.70;13.70;;;;;;5033271;28;20407;-76
2022/05/30 12:55:50;;;;;;;5.63;2.63;;;24.50;11.60;;;;;;5037047;28;20725;-76
2022/05/30 12:58:34;;;;;;;3.20;2.40;;;24.90;10.90;;;;;;5033881;28;20418;-76
2022/05/30 13:01:25;;;;;;;4.77;2.77;;;23.80;9.10;;;;;;5033260;28;20502;-76
2022/05/30 13:04:13;;;;;;;6.10;2.83;;;22.50;9.00;;;;;;5033263;28;20411;-76
2022/05/30 13:06:44;;;;;;;4.43;2.57;;;23.10;11.70;;;;;;5032353;28;20435;-76
2022/05/30 13:09:20;;;;;;;5.40;3.00;;;22.60;10.60;;;;;;5033411;28;20418;-76
2022/05/30 13:12:01;;;;;;;3.37;2.57;;;21.70;9.60;;;;;;5015062;28;20414;-76
2022/05/30 13:14:49;;;;;;;4.10;2.73;;;20.50;10.50;;;;;;5033045;28;20451;-76
2022/05/30 13:17:22;;;;;;;4.73;2.80;;;21.70;13.50;;;;;;5033209;28;20430;-76
2022/05/30 13:20:12;;;;;;;5.23;2.80;;;22.90;11.30;;;;;;5033293;28;20422;-75
2022/05/30 13:22:51;;;;;;;4.90;2.77;;;23.50;10.50;;;;;;5032754;28;20446;-76
2022/05/30 13:25:51;;;;;;;3.23;2.20;;;24.00;9.80;;;;;;5032800;28;20478;-76
2022/05/30 13:28:21;;;;;;;3.37;2.47;;;23.60;8.40;;;;;;4971571;28;20822;-76
2022/05/30 13:30:48;;;;;;;8.20;2.80;;;23.10;9.80;;;;;;4971735;28;20433;-76